createdAt,value
2019-03-25T00:01:05.861Z,12.17
2019-03-25T00:03:37.958Z,12.06
2019-03-25T00:06:09.976Z,12.06
2019-03-25T00:08:41.798Z,12.09
2019-03-25T00:11:13.723Z,11.99
2019-03-25T00:13:45.759Z,11.97
2019-03-25T00:16:17.819Z,12.05
2019-03-25T00:18:49.666Z,12.00
2019-03-25T00:21:21.844Z,12.01
2019-03-25T00:23:53.634Z,12.05
2019-03-25T00:26:25.486Z,11.91
2019-03-25T00:28:57.268Z,11.90
2019-03-25T00:31:29.057Z,11.91
2019-03-25T00:34:01.164Z,11.99
2019-03-25T00:36:33.062Z,11.91
2019-03-25T00:39:07.641Z,11.89
2019-03-25T00:41:39.581Z,11.85
2019-03-25T00:44:11.417Z,11.81
2019-03-25T00:46:43.409Z,11.79
2019-03-25T00:49:15.455Z,11.84
2019-03-25T00:51:47.389Z,11.80
2019-03-25T00:54:19.184Z,11.78
2019-03-25T00:56:51.112Z,11.73
2019-03-25T00:59:22.899Z,11.69
2019-03-25T01:01:54.920Z,11.74
2019-03-25T01:04:26.843Z,11.74
2019-03-25T01:06:58.803Z,11.60
2019-03-25T01:09:30.745Z,11.54
2019-03-25T01:12:02.769Z,11.52
2019-03-25T01:14:34.559Z,11.52
2019-03-25T01:17:06.320Z,11.57
2019-03-25T01:19:38.115Z,11.54
2019-03-25T01:22:10.178Z,11.61
2019-03-25T01:24:41.942Z,11.58
2019-03-25T01:27:13.755Z,11.47
2019-03-25T01:29:45.548Z,11.39
2019-03-25T01:32:17.705Z,11.33
2019-03-25T01:34:49.654Z,11.25
2019-03-25T01:37:21.474Z,11.29
2019-03-25T01:39:53.582Z,11.39
2019-03-25T01:42:25.732Z,11.38
2019-03-25T01:44:59.017Z,11.39
2019-03-25T01:47:30.868Z,11.14
2019-03-25T01:50:03.043Z,11.24
2019-03-25T01:52:34.882Z,11.30
2019-03-25T01:55:13.528Z,11.33
2019-03-25T01:57:42.256Z,11.27
2019-03-25T02:00:15.176Z,11.22
2019-03-25T02:02:47.628Z,11.32
2019-03-25T02:05:19.396Z,11.19
2019-03-25T02:07:51.432Z,11.23
2019-03-25T02:10:23.525Z,11.21
2019-03-25T02:12:55.447Z,11.09
2019-03-25T02:15:27.546Z,11.11
2019-03-25T02:17:59.479Z,11.16
2019-03-25T02:20:31.661Z,11.07
2019-03-25T02:25:42.883Z,11.14
2019-03-25T02:28:14.935Z,11.22
2019-03-25T02:30:47.743Z,11.26
2019-03-25T02:33:19.913Z,11.27
2019-03-25T02:35:51.788Z,11.14
2019-03-25T02:38:23.571Z,11.17
2019-03-25T02:40:55.526Z,11.23
2019-03-25T02:43:27.384Z,11.16
2019-03-25T02:45:59.276Z,11.15
2019-03-25T02:48:31.128Z,11.06
2019-03-25T02:51:03.162Z,11.06
2019-03-25T02:53:35.060Z,10.93
2019-03-25T02:56:07.102Z,10.95
2019-03-25T02:58:39.194Z,10.91
2019-03-25T03:01:10.966Z,10.89
2019-03-25T03:03:42.728Z,10.93
2019-03-25T03:06:14.592Z,10.91
2019-03-25T03:08:47.744Z,10.83
2019-03-25T03:11:19.659Z,10.84
2019-03-25T03:13:51.565Z,10.86
2019-03-25T03:16:23.419Z,10.81
2019-03-25T03:18:55.494Z,10.69
2019-03-25T03:21:27.307Z,10.59
2019-03-25T03:23:59.168Z,10.48
2019-03-25T03:26:31.029Z,10.59
2019-03-25T03:29:02.836Z,10.50
2019-03-25T03:31:34.713Z,10.50
2019-03-25T03:34:06.557Z,10.50
2019-03-25T03:36:38.635Z,10.50
2019-03-25T03:39:10.657Z,10.48
2019-03-25T03:41:42.913Z,10.41
2019-03-25T03:44:14.756Z,10.30
2019-03-25T03:46:47.991Z,10.39
2019-03-25T03:49:19.841Z,10.42
2019-03-25T03:51:52.640Z,10.36
2019-03-25T03:54:24.627Z,10.31
2019-03-25T03:56:57.761Z,10.31
2019-03-25T03:59:29.541Z,10.19
2019-03-25T04:02:01.631Z,10.06
2019-03-25T04:04:33.484Z,10.15
2019-03-25T04:07:05.377Z,10.03
2019-03-25T04:09:37.199Z,10.08
2019-03-25T04:12:09.588Z,10.00
2019-03-25T04:14:41.433Z,9.97
2019-03-25T04:17:14.261Z,10.12
2019-03-25T04:19:46.432Z,9.90
2019-03-25T04:22:18.353Z,9.82
2019-03-25T04:24:50.240Z,9.58
2019-03-25T04:27:24.048Z,9.56
2019-03-25T04:29:55.791Z,9.52
2019-03-25T04:32:27.633Z,9.51
2019-03-25T04:34:59.527Z,9.40
2019-03-25T04:37:31.326Z,9.35
2019-03-25T04:40:04.513Z,9.36
2019-03-25T04:42:36.291Z,9.28
2019-03-25T04:45:08.340Z,9.22
2019-03-25T04:47:40.221Z,9.16
2019-03-25T04:50:12.608Z,9.02
2019-03-25T04:52:44.536Z,8.89
2019-03-25T04:55:16.706Z,9.01
2019-03-25T04:57:48.667Z,8.94
2019-03-25T05:00:38.061Z,8.80
2019-03-25T05:03:10.815Z,8.72
2019-03-25T05:05:43.129Z,8.72
2019-03-25T05:08:14.968Z,8.60
2019-03-25T05:10:47.943Z,8.52
2019-03-25T05:13:20.304Z,8.56
2019-03-25T05:15:52.198Z,8.50
2019-03-25T05:18:24.130Z,8.48
2019-03-25T05:20:55.955Z,8.40
2019-03-25T05:23:27.743Z,8.44
2019-03-25T05:25:59.503Z,8.40
2019-03-25T05:28:31.270Z,8.22
2019-03-25T05:31:03.088Z,8.23
2019-03-25T05:33:34.921Z,8.21
2019-03-25T05:36:06.774Z,8.29
2019-03-25T05:38:38.560Z,8.34
2019-03-25T05:41:11.107Z,8.30
2019-03-25T05:43:43.145Z,8.08
2019-03-25T05:46:14.917Z,8.07
2019-03-25T05:48:48.004Z,8.23
2019-03-25T05:51:19.840Z,8.22
2019-03-25T05:53:51.837Z,8.11
2019-03-25T05:56:23.644Z,8.20
2019-03-25T05:58:55.711Z,8.26
2019-03-25T06:01:28.622Z,8.33
2019-03-25T06:04:00.585Z,8.38
2019-03-25T06:06:32.544Z,8.56
2019-03-25T06:09:05.003Z,8.54
2019-03-25T06:11:36.895Z,8.65
2019-03-25T06:14:08.802Z,8.61
2019-03-25T06:16:40.562Z,8.65
2019-03-25T06:19:12.324Z,8.82
2019-03-25T06:21:44.446Z,8.69
2019-03-25T06:24:16.310Z,8.74
2019-03-25T06:26:48.096Z,8.64
2019-03-25T06:29:19.963Z,8.84
2019-03-25T06:31:52.068Z,9.05
2019-03-25T06:34:24.219Z,9.04
2019-03-25T06:36:56.070Z,9.01
2019-03-25T06:39:27.981Z,9.05
2019-03-25T06:41:59.739Z,8.85
2019-03-25T06:44:31.639Z,9.00
2019-03-25T06:47:03.605Z,9.20
2019-03-25T06:49:35.380Z,9.25
2019-03-25T06:52:07.518Z,9.18
2019-03-25T06:54:39.540Z,9.36
2019-03-25T06:57:11.299Z,9.39
2019-03-25T06:59:43.214Z,9.42
2019-03-25T07:02:15.324Z,9.49
2019-03-25T07:04:48.601Z,9.44
2019-03-25T07:07:20.544Z,9.56
2019-03-25T07:09:52.535Z,9.58
2019-03-25T07:12:24.657Z,9.55
2019-03-25T07:14:56.503Z,9.40
2019-03-25T07:17:28.440Z,9.62
2019-03-25T07:20:00.331Z,9.56
2019-03-25T07:22:32.239Z,9.77
2019-03-25T07:25:04.109Z,9.79
2019-03-25T07:27:37.327Z,9.83
2019-03-25T07:30:11.409Z,9.74
2019-03-25T07:32:43.525Z,9.80
2019-03-25T07:35:15.576Z,9.96
2019-03-25T07:37:48.491Z,10.03
2019-03-25T07:40:20.393Z,9.93
2019-03-25T07:42:53.945Z,9.98
2019-03-25T07:45:25.867Z,10.05
2019-03-25T07:47:58.759Z,10.09
2019-03-25T07:50:30.674Z,10.05
2019-03-25T07:53:02.509Z,10.18
2019-03-25T07:55:34.920Z,10.33
2019-03-25T07:58:07.130Z,10.30
2019-03-25T08:00:39.165Z,10.49
2019-03-25T08:03:12.069Z,10.52
2019-03-25T08:05:44.152Z,10.43
2019-03-25T08:08:15.932Z,10.22
2019-03-25T08:10:48.489Z,10.31
2019-03-25T08:13:20.405Z,10.25
2019-03-25T08:15:52.686Z,10.26
2019-03-25T08:18:24.652Z,10.36
2019-03-25T08:20:57.604Z,10.25
2019-03-25T08:23:29.539Z,10.40
2019-03-25T08:26:01.401Z,10.43
2019-03-25T08:28:33.321Z,10.31
2019-03-25T08:31:05.499Z,10.36
2019-03-25T08:33:37.738Z,10.48
2019-03-25T08:36:09.835Z,10.58
2019-03-25T08:38:41.643Z,10.69
2019-03-25T08:41:13.640Z,10.90
2019-03-25T08:43:46.648Z,10.87
2019-03-25T08:46:18.436Z,11.01
2019-03-25T08:48:50.476Z,10.99
2019-03-25T08:51:22.705Z,10.98
2019-03-25T08:53:54.798Z,11.18
2019-03-25T08:56:26.697Z,11.21
2019-03-25T08:58:58.587Z,11.14
2019-03-25T09:01:30.573Z,11.26
2019-03-25T09:04:02.391Z,11.20
2019-03-25T09:06:34.249Z,11.29
2019-03-25T09:09:08.543Z,11.23
2019-03-25T09:11:40.861Z,11.16
2019-03-25T09:14:12.959Z,11.04
2019-03-25T09:16:44.916Z,10.90
2019-03-25T09:19:16.953Z,11.02
2019-03-25T09:21:48.861Z,10.96
2019-03-25T09:24:20.768Z,11.13
2019-03-25T09:26:52.806Z,11.13
2019-03-25T09:29:24.731Z,11.30
2019-03-25T09:31:56.659Z,11.59
2019-03-25T09:34:28.449Z,11.71
2019-03-25T09:37:00.413Z,11.82
2019-03-25T09:39:32.380Z,11.91
2019-03-25T09:42:04.329Z,11.86
2019-03-25T09:44:36.175Z,11.88
2019-03-25T09:47:08.027Z,11.96
2019-03-25T09:49:39.880Z,11.85
2019-03-25T09:52:11.933Z,11.75
2019-03-25T09:54:43.805Z,11.83
2019-03-25T09:57:15.950Z,11.62
2019-03-25T09:59:48.830Z,11.67
2019-03-25T10:02:20.908Z,11.50
2019-03-25T10:04:52.875Z,11.26
2019-03-25T10:07:28.292Z,11.31
2019-03-25T10:09:59.343Z,11.28
2019-03-25T10:12:31.218Z,11.22
2019-03-25T10:15:03.151Z,11.22
2019-03-25T10:17:35.108Z,11.06
2019-03-25T10:20:07.696Z,11.10
2019-03-25T10:22:39.850Z,11.13
2019-03-25T10:25:13.383Z,11.31
2019-03-25T10:27:45.369Z,11.40
2019-03-25T10:30:18.068Z,11.33
2019-03-25T10:32:50.205Z,11.44
2019-03-25T10:35:22.308Z,11.52
2019-03-25T10:37:54.350Z,11.62
2019-03-25T10:40:26.240Z,11.65
2019-03-25T10:42:58.204Z,11.78
2019-03-25T10:45:30.116Z,12.05
2019-03-25T10:48:01.905Z,12.25
2019-03-25T10:50:33.781Z,12.28
2019-03-25T10:53:05.680Z,12.16
2019-03-25T10:55:38.724Z,12.32
2019-03-25T10:58:10.734Z,12.45
2019-03-25T11:00:44.164Z,12.34
2019-03-25T11:03:17.057Z,11.93
2019-03-25T11:05:49.119Z,12.11
2019-03-25T11:08:21.217Z,12.19
2019-03-25T11:10:53.489Z,12.21
2019-03-25T11:13:25.301Z,11.87
2019-03-25T11:15:57.534Z,11.88
2019-03-25T11:18:29.830Z,11.83
2019-03-25T11:21:01.707Z,11.69
2019-03-25T11:23:33.574Z,11.61
2019-03-25T11:26:05.576Z,11.88
2019-03-25T11:28:37.924Z,11.83
2019-03-25T11:31:09.842Z,11.89
2019-03-25T11:33:42.270Z,11.88
2019-03-25T11:36:14.933Z,12.00
2019-03-25T11:38:46.875Z,12.05
2019-03-25T11:41:19.232Z,12.07
2019-03-25T11:43:51.419Z,12.04
2019-03-25T11:46:23.778Z,11.96
2019-03-25T11:48:55.807Z,12.00
2019-03-25T11:51:28.205Z,11.72
2019-03-25T11:54:00.248Z,11.83
2019-03-25T11:56:32.110Z,12.02
2019-03-25T11:59:04.044Z,12.12
2019-03-25T12:01:35.878Z,12.29
2019-03-25T12:04:10.581Z,12.48
2019-03-25T12:06:42.688Z,12.69
2019-03-25T12:09:14.979Z,12.59
2019-03-25T12:11:47.182Z,12.80
2019-03-25T12:14:19.414Z,12.78
2019-03-25T12:16:51.314Z,12.80
2019-03-25T12:19:23.196Z,12.96
2019-03-25T12:21:55.043Z,13.20
2019-03-25T12:24:26.925Z,13.36
2019-03-25T12:26:59.261Z,13.26
2019-03-25T12:29:31.288Z,13.33
2019-03-25T12:32:03.215Z,12.99
2019-03-25T12:34:35.196Z,12.84
2019-03-25T12:37:07.052Z,12.84
2019-03-25T12:39:39.189Z,12.65
2019-03-25T12:42:11.128Z,12.07
2019-03-25T12:44:43.085Z,12.09
2019-03-25T12:47:15.500Z,11.93
2019-03-25T12:49:47.491Z,11.89
2019-03-25T12:52:19.435Z,11.75
2019-03-25T12:54:51.320Z,11.69
2019-03-25T12:57:23.569Z,11.62
2019-03-25T12:59:55.673Z,11.53
2019-03-25T13:02:27.438Z,11.51
2019-03-25T13:04:59.396Z,11.41
2019-03-25T13:07:31.382Z,11.41
2019-03-25T13:10:03.366Z,11.47
2019-03-25T13:12:35.316Z,11.66
2019-03-25T13:15:08.670Z,11.80
2019-03-25T13:17:40.472Z,11.74
2019-03-25T13:20:13.523Z,11.88
2019-03-25T13:22:45.418Z,11.97
2019-03-25T13:25:17.264Z,12.00
2019-03-25T13:27:49.296Z,12.12
2019-03-25T13:30:21.491Z,12.25
2019-03-25T13:32:53.297Z,12.36
2019-03-25T13:35:25.242Z,12.30
2019-03-25T13:37:59.005Z,12.40
2019-03-25T13:40:31.257Z,12.55
2019-03-25T13:43:03.192Z,12.59
2019-03-25T13:45:35.231Z,12.71
2019-03-25T13:48:14.082Z,12.58
2019-03-25T13:50:49.155Z,12.46
2019-03-25T13:53:21.185Z,12.46
2019-03-25T13:55:53.171Z,12.43
2019-03-25T13:58:26.123Z,12.54
2019-03-25T14:00:59.107Z,12.40
2019-03-25T14:03:32.023Z,12.16
2019-03-25T14:06:10.733Z,11.99
2019-03-25T14:08:44.930Z,11.93
2019-03-25T14:11:18.858Z,12.07
2019-03-25T14:13:50.738Z,11.75
2019-03-25T14:16:22.940Z,11.25
2019-03-25T14:18:54.944Z,10.90
2019-03-25T14:21:27.201Z,10.65
2019-03-25T14:24:05.372Z,10.43
2019-03-25T14:26:37.219Z,10.24
2019-03-25T14:29:09.185Z,10.17
2019-03-25T14:31:41.083Z,10.01
2019-03-25T14:34:17.899Z,10.11
2019-03-25T14:36:49.828Z,10.05
2019-03-25T14:39:23.022Z,10.27
2019-03-25T14:41:55.372Z,10.41
2019-03-25T14:44:27.551Z,10.38
2019-03-25T14:47:09.284Z,10.50
2019-03-25T14:49:41.126Z,10.59
2019-03-25T14:52:21.283Z,10.79
2019-03-25T14:54:53.158Z,10.89
2019-03-25T14:57:25.084Z,11.05
2019-03-25T14:59:57.270Z,11.21
2019-03-25T15:02:30.160Z,11.33
2019-03-25T15:05:02.069Z,11.32
2019-03-25T15:07:34.665Z,11.43
2019-03-25T15:10:18.388Z,11.43
2019-03-25T15:12:50.234Z,11.59
2019-03-25T15:15:22.192Z,11.67
2019-03-25T15:17:54.190Z,11.60
2019-03-25T15:20:26.143Z,11.65
2019-03-25T15:22:57.934Z,11.51
2019-03-25T15:25:29.817Z,11.40
2019-03-25T15:28:01.791Z,11.40
2019-03-25T15:30:36.266Z,11.43
2019-03-25T15:33:07.427Z,11.51
2019-03-25T15:35:39.511Z,11.27
2019-03-25T15:38:11.588Z,11.14
2019-03-25T15:40:43.514Z,11.21
2019-03-25T15:43:15.466Z,11.26
2019-03-25T15:45:47.426Z,11.19
2019-03-25T15:48:19.956Z,11.20
2019-03-25T15:50:51.749Z,11.38
2019-03-25T15:53:23.527Z,11.34
2019-03-25T15:55:55.322Z,11.23
2019-03-25T15:58:27.344Z,11.14
2019-03-25T16:00:59.550Z,11.16
2019-03-25T16:03:31.338Z,11.10
2019-03-25T16:06:03.148Z,11.06
2019-03-25T16:08:35.055Z,11.05
2019-03-25T16:11:07.031Z,11.02
2019-03-25T16:13:38.808Z,11.07
2019-03-25T16:16:10.748Z,10.97
2019-03-25T16:18:43.544Z,11.08
2019-03-25T16:21:15.648Z,11.05
2019-03-25T16:23:47.575Z,10.94
2019-03-25T16:26:19.693Z,10.89
2019-03-25T16:28:51.949Z,10.80
2019-03-25T16:31:23.856Z,10.86
2019-03-25T16:33:55.661Z,10.83
2019-03-25T16:36:27.618Z,10.70
2019-03-25T16:38:59.438Z,10.63
2019-03-25T16:41:33.139Z,10.66
2019-03-25T16:44:05.373Z,10.73
2019-03-25T16:46:37.238Z,10.85
2019-03-25T16:49:09.229Z,10.81
2019-03-25T16:51:40.992Z,10.61
2019-03-25T16:54:12.845Z,10.49
2019-03-25T19:36:56.444Z,9.50
2019-03-25T19:39:28.342Z,9.49
2019-03-25T19:42:00.206Z,9.46
2019-03-25T19:44:32.062Z,9.60
2019-03-25T19:47:03.925Z,9.30
2019-03-25T19:49:35.794Z,9.23
2019-03-25T19:52:09.454Z,9.15
2019-03-25T19:54:41.113Z,9.09
2019-03-25T19:57:12.948Z,9.01
2019-03-25T19:59:44.721Z,8.96
2019-03-25T20:02:19.175Z,8.91
2019-03-25T20:04:50.326Z,8.70
2019-03-25T20:07:22.109Z,8.76
2019-03-25T20:09:54.037Z,8.81
2019-03-25T20:12:26.224Z,8.80
2019-03-25T20:14:58.322Z,8.83
2019-03-25T20:17:30.168Z,8.76
2019-03-25T20:20:02.032Z,8.78
2019-03-25T20:22:34.231Z,8.68
2019-03-25T20:25:06.764Z,8.85
2019-03-25T20:27:38.680Z,8.76
2019-03-25T20:30:11.137Z,8.76
2019-03-25T20:32:43.144Z,8.56
2019-03-25T20:35:15.708Z,8.67
2019-03-25T20:37:47.567Z,8.72
2019-03-25T20:40:20.569Z,8.68
2019-03-25T20:42:52.418Z,8.72
2019-03-25T20:45:24.271Z,8.66
2019-03-25T20:47:56.090Z,8.62
2019-03-25T20:50:27.881Z,8.56
2019-03-25T20:52:59.972Z,8.59
2019-03-25T20:55:31.751Z,8.72
2019-03-25T20:58:04.868Z,8.58
2019-03-25T21:00:57.187Z,8.52
2019-03-25T21:03:29.256Z,8.47
2019-03-25T21:06:01.090Z,8.36
2019-03-25T21:08:33.981Z,8.38
2019-03-25T21:11:05.765Z,8.34
2019-03-25T21:13:37.518Z,8.31
2019-03-25T21:16:09.461Z,8.25
2019-03-25T21:18:42.268Z,8.17
2019-03-25T21:21:14.052Z,8.25
2019-03-25T21:23:46.085Z,8.34
2019-03-25T21:26:17.935Z,8.31
2019-03-25T21:28:51.132Z,8.29
2019-03-25T21:31:23.194Z,8.30
2019-03-25T21:33:55.936Z,8.26
2019-03-25T21:36:27.831Z,8.20
2019-03-25T21:38:59.586Z,8.24
2019-03-25T21:41:31.431Z,8.18
2019-03-25T21:44:03.246Z,8.30
2019-03-25T21:46:35.312Z,8.23
2019-03-25T21:49:07.113Z,8.32
2019-03-25T21:51:39.216Z,8.36
2019-03-25T21:54:11.146Z,8.38
2019-03-25T21:56:43.356Z,8.40
2019-03-25T21:59:15.274Z,8.40
2019-03-25T22:01:47.289Z,8.32
2019-03-25T22:04:19.067Z,8.36
2019-03-25T22:06:51.190Z,8.36
2019-03-25T22:09:22.956Z,8.46
2019-03-25T22:11:54.736Z,8.39
2019-03-25T22:14:26.520Z,8.36
2019-03-25T22:16:58.285Z,8.31
2019-03-25T22:19:30.058Z,8.38
2019-03-25T22:22:01.961Z,8.40
2019-03-25T22:24:33.827Z,8.49
2019-03-25T22:27:05.605Z,8.40
2019-03-25T22:29:37.444Z,8.38
2019-03-25T22:32:09.231Z,8.48
2019-03-25T22:34:41.264Z,8.36
2019-03-25T22:37:13.085Z,8.38
2019-03-25T22:39:45.241Z,8.37
2019-03-25T22:42:17.013Z,8.25
2019-03-25T22:44:48.962Z,8.11
2019-03-25T22:47:21.461Z,8.29
2019-03-25T22:49:53.332Z,8.07
2019-03-25T22:52:25.372Z,8.26
2019-03-25T22:54:57.513Z,8.24
2019-03-25T22:57:29.902Z,8.36
2019-03-25T23:00:01.693Z,8.24
2019-03-25T23:02:34.799Z,8.26
2019-03-25T23:05:07.497Z,8.34
2019-03-25T23:07:39.558Z,8.33
2019-03-25T23:10:11.911Z,8.39
2019-03-25T23:12:43.900Z,8.33
2019-03-25T23:15:16.093Z,8.22
2019-03-25T23:17:48.272Z,8.25
2019-03-25T23:20:21.063Z,8.37
2019-03-25T23:22:54.611Z,8.33
2019-03-25T23:25:26.342Z,8.32
2019-03-25T23:27:58.258Z,8.32
2019-03-25T23:30:30.022Z,8.31
2019-03-25T23:33:02.265Z,8.32
2019-03-25T23:35:34.102Z,8.31
2019-03-25T23:38:06.039Z,8.29
2019-03-25T23:40:37.909Z,8.26
2019-03-25T23:43:09.991Z,8.32
2019-03-25T23:45:41.913Z,8.40
2019-03-25T23:48:14.764Z,8.41
2019-03-25T23:50:46.643Z,8.48
2019-03-25T23:53:18.409Z,8.43
2019-03-25T23:55:51.062Z,8.31
2019-03-25T23:58:23.618Z,8.26
